Aviation Digital Data Service (ADDS)

Output produced by METARs form (1232 UTC 15 November 2018)
found at http://www.aviationweather.gov/metar/data/
 
TAF MZBZ 150900Z 1512/1612 30012G25KT 9999 FEW020 BKN045